Terminal Aerodrome Forecast
Issued by NWS

Home | Current Version | Previous Version | Text Only | Print | Product List | Glossary On
Versions: 1 2 3 4 5 6 7 8 9 10 11 12 13 14 15 16 17 18 19 20 21 22 23 24 25 26 27 28 29 30 31 32 33 34 35 36 37 38 39
000
FTUS45 KREV 190100 AAA
TAFRNO
TAF AMD
KRNO 190125Z 1901/1924 29012G24KT 1SM FU HZ BKN025 BKN090
     FM190300 30011G20KT 2SM FU HZ SCT025 BKN090
     FM190500 33011KT 6SM FU HZ SCT030 BKN080
     FM190700 VRB04KT P6SM SCT080
     FM192000 05008KT P6SM SCT100 BKN150=

USA.gov is the U.S. government's official web portal to all federal, state and local government web resources and services.